createdAt,value
2022-10-17T00:00:26.073Z,99.90
2022-10-17T00:02:56.279Z,99.90
2022-10-17T00:05:24.979Z,99.90
2022-10-17T00:07:52.987Z,99.90
2022-10-17T00:10:21.389Z,99.90
2022-10-17T00:12:49.215Z,99.90
2022-10-17T00:15:20.497Z,99.90
2022-10-17T00:17:48.345Z,99.90
2022-10-17T00:20:18.611Z,99.90
2022-10-17T00:22:46.599Z,99.90
2022-10-17T00:25:14.532Z,99.90
2022-10-17T00:27:43.046Z,99.90
2022-10-17T00:30:14.768Z,99.90
2022-10-17T00:32:44.200Z,99.90
2022-10-17T00:35:12.080Z,99.90
2022-10-17T00:37:39.956Z,99.90
2022-10-17T00:40:09.237Z,99.90
2022-10-17T00:42:37.117Z,99.90
2022-10-17T00:45:14.325Z,99.90
2022-10-17T00:47:52.338Z,99.90
2022-10-17T00:50:22.219Z,99.90
2022-10-17T00:52:52.440Z,99.90
2022-10-17T00:55:26.139Z,99.90
2022-10-17T00:57:54.490Z,99.90
2022-10-17T01:00:22.923Z,99.90
2022-10-17T01:02:52.306Z,99.90
2022-10-17T01:05:21.188Z,99.90
2022-10-17T01:07:54.001Z,99.90
2022-10-17T01:12:59.616Z,99.90
2022-10-17T01:15:41.431Z,99.90
2022-10-17T01:18:19.318Z,99.90
2022-10-17T01:21:24.432Z,99.90
2022-10-17T01:24:29.447Z,99.90
2022-10-17T01:27:14.587Z,99.90
2022-10-17T01:29:54.096Z,99.90
2022-10-17T01:32:27.491Z,99.90
2022-10-17T01:35:02.010Z,99.90
2022-10-17T01:37:34.352Z,99.90
2022-10-17T01:40:10.482Z,99.90
2022-10-17T01:42:44.220Z,99.90
2022-10-17T01:45:17.366Z,99.90
2022-10-17T01:47:48.641Z,99.90
2022-10-17T01:50:23.436Z,99.90
2022-10-17T01:52:55.144Z,99.90
2022-10-17T01:55:28.622Z,99.90
2022-10-17T01:58:00.169Z,99.90
2022-10-17T02:00:30.778Z,99.90
2022-10-17T02:03:04.499Z,99.90
2022-10-17T02:05:36.696Z,99.90
2022-10-17T02:08:05.334Z,99.90
2022-10-17T02:10:43.546Z,99.90
2022-10-17T02:13:20.938Z,99.90
2022-10-17T02:16:09.818Z,99.90
2022-10-17T02:19:09.403Z,99.90
2022-10-17T02:21:44.575Z,99.90
2022-10-17T02:24:21.444Z,99.90
2022-10-17T02:26:56.100Z,99.90
2022-10-17T02:29:28.864Z,99.90
2022-10-17T02:32:01.659Z,99.90
2022-10-17T02:34:34.805Z,99.90
2022-10-17T02:37:08.055Z,99.90
2022-10-17T02:39:37.049Z,99.90
2022-10-17T02:42:08.523Z,99.90
2022-10-17T02:44:40.992Z,99.90
2022-10-17T02:47:17.171Z,99.90
2022-10-17T02:49:51.858Z,99.90
2022-10-17T02:52:27.360Z,99.90
2022-10-17T02:55:01.253Z,99.90
2022-10-17T02:57:36.488Z,99.90
2022-10-17T03:00:08.663Z,99.90
2022-10-17T03:02:41.532Z,99.90
2022-10-17T03:05:14.206Z,99.90
2022-10-17T03:07:42.023Z,99.90
2022-10-17T03:10:10.163Z,99.90
2022-10-17T03:12:38.663Z,99.90
2022-10-17T03:15:07.811Z,99.90
2022-10-17T03:17:35.958Z,99.90
2022-10-17T03:20:04.092Z,99.90
2022-10-17T03:22:33.811Z,99.90
2022-10-17T03:25:03.941Z,99.90
2022-10-17T03:27:32.445Z,99.90
2022-10-17T03:30:00.557Z,99.90
2022-10-17T03:32:28.541Z,99.90
2022-10-17T03:34:56.825Z,99.90
2022-10-17T03:37:24.831Z,99.90
2022-10-17T03:39:54.290Z,99.90
2022-10-17T03:42:22.180Z,99.90
2022-10-17T03:44:50.410Z,99.90
2022-10-17T03:47:18.513Z,99.90
2022-10-17T03:49:47.363Z,99.90
2022-10-17T03:52:16.826Z,99.90
2022-10-17T03:54:44.666Z,99.90
2022-10-17T03:57:13.885Z,99.90
2022-10-17T03:59:41.827Z,99.90
2022-10-17T04:02:15.766Z,99.90
2022-10-17T04:04:44.844Z,99.90
2022-10-17T04:07:12.857Z,99.90
2022-10-17T04:09:44.493Z,99.90
2022-10-17T04:12:16.762Z,99.90
2022-10-17T04:14:45.106Z,99.90
2022-10-17T04:17:13.006Z,99.90
2022-10-17T04:19:40.968Z,99.90
2022-10-17T04:22:09.651Z,99.90
2022-10-17T04:24:40.166Z,99.90
2022-10-17T04:27:17.120Z,99.90
2022-10-17T04:29:46.848Z,99.90
2022-10-17T04:32:22.087Z,99.90
2022-10-17T04:34:55.715Z,99.90
2022-10-17T04:37:24.646Z,99.90
2022-10-17T04:39:55.122Z,99.90
2022-10-17T04:42:24.570Z,99.90
2022-10-17T04:44:54.908Z,99.90
2022-10-17T04:47:26.600Z,99.90
2022-10-17T04:49:54.552Z,99.90
2022-10-17T04:52:24.991Z,99.90
2022-10-17T04:54:54.083Z,99.90
2022-10-17T04:57:24.849Z,99.90
2022-10-17T05:00:13.471Z,99.90
2022-10-17T05:02:55.434Z,99.90
2022-10-17T05:05:23.355Z,99.90
2022-10-17T05:07:54.033Z,99.90
2022-10-17T05:10:26.030Z,99.90
2022-10-17T05:12:56.756Z,99.90
2022-10-17T05:15:28.922Z,99.90
2022-10-17T05:17:57.917Z,99.90
2022-10-17T05:20:27.952Z,99.90
2022-10-17T05:22:56.470Z,99.90
2022-10-17T05:25:24.429Z,99.90
2022-10-17T05:27:52.319Z,99.90
2022-10-17T05:30:21.813Z,99.90
2022-10-17T05:32:55.553Z,99.90
2022-10-17T05:35:23.847Z,99.90
2022-10-17T05:37:53.223Z,99.90
2022-10-17T05:40:22.629Z,99.90
2022-10-17T05:42:53.809Z,99.90
2022-10-17T05:45:24.561Z,99.90
2022-10-17T05:47:52.914Z,99.90
2022-10-17T05:50:23.914Z,99.90
2022-10-17T05:53:05.971Z,99.90
2022-10-17T05:55:39.514Z,99.90
2022-10-17T05:58:09.781Z,99.90
2022-10-17T06:03:18.756Z,99.90
2022-10-17T06:05:47.532Z,99.90
2022-10-17T06:08:15.443Z,99.90
2022-10-17T06:10:44.843Z,99.90
2022-10-17T06:13:12.826Z,99.90
2022-10-17T06:15:41.244Z,99.90
2022-10-17T06:18:12.662Z,99.90
2022-10-17T06:20:45.264Z,99.90
2022-10-17T06:23:15.326Z,99.90
2022-10-17T06:25:52.917Z,99.90
2022-10-17T06:28:20.997Z,99.90
2022-10-17T06:30:48.998Z,99.90
2022-10-17T06:33:18.234Z,99.90
2022-10-17T06:35:52.399Z,99.90
2022-10-17T06:38:20.658Z,99.90
2022-10-17T06:40:50.222Z,99.90
2022-10-17T06:43:18.161Z,99.90
2022-10-17T06:46:17.709Z,99.90
2022-10-17T06:48:56.897Z,99.90
2022-10-17T06:51:38.121Z,99.90
2022-10-17T06:54:08.949Z,99.90
2022-10-17T06:56:48.427Z,99.90
2022-10-17T06:59:28.406Z,99.90
2022-10-17T07:02:09.901Z,99.90
2022-10-17T07:04:40.443Z,99.90
2022-10-17T07:07:08.368Z,99.90
2022-10-17T07:09:36.981Z,99.90
2022-10-17T07:12:08.067Z,99.90
2022-10-17T07:14:36.260Z,99.90
2022-10-17T07:17:05.235Z,99.90
2022-10-17T07:19:34.285Z,99.90
2022-10-17T07:22:03.484Z,99.90
2022-10-17T07:24:33.386Z,99.90
2022-10-17T07:27:14.004Z,99.90
2022-10-17T07:29:42.346Z,99.90
2022-10-17T07:32:19.728Z,99.90
2022-10-17T07:34:47.837Z,99.90
2022-10-17T07:37:17.694Z,99.90
2022-10-17T07:39:52.401Z,99.90
2022-10-17T07:42:20.312Z,99.90
2022-10-17T07:44:48.236Z,99.90
2022-10-17T07:47:16.464Z,99.90
2022-10-17T07:49:45.262Z,99.90
2022-10-17T07:52:13.819Z,99.90
2022-10-17T07:54:43.415Z,99.90
2022-10-17T07:57:11.578Z,99.90
2022-10-17T07:59:39.487Z,99.90
2022-10-17T08:02:08.381Z,99.90
2022-10-17T08:04:36.727Z,99.90
2022-10-17T08:07:19.578Z,99.90
2022-10-17T08:09:50.269Z,99.90
2022-10-17T08:12:18.442Z,99.90
2022-10-17T08:14:46.603Z,99.90
2022-10-17T08:17:14.521Z,99.90
2022-10-17T08:19:42.482Z,99.90
2022-10-17T08:22:10.573Z,99.90
2022-10-17T08:24:38.365Z,99.90
2022-10-17T08:27:11.317Z,99.90
2022-10-17T08:29:39.672Z,99.90
2022-10-17T08:32:09.955Z,99.90
2022-10-17T08:34:38.424Z,99.90
2022-10-17T08:37:06.464Z,99.90
2022-10-17T08:39:34.465Z,99.90
2022-10-17T08:42:19.304Z,99.90
2022-10-17T08:44:58.124Z,99.90
2022-10-17T08:47:30.633Z,99.90
2022-10-17T08:50:02.161Z,99.90
2022-10-17T08:52:37.590Z,99.90
2022-10-17T08:55:10.631Z,99.90
2022-10-17T08:57:39.889Z,99.90
2022-10-17T09:00:17.163Z,99.90
2022-10-17T09:02:58.540Z,99.90
2022-10-17T09:05:38.591Z,99.90
2022-10-17T09:08:17.513Z,99.90
2022-10-17T09:10:57.729Z,99.90
2022-10-17T09:13:37.758Z,99.90
2022-10-17T09:16:18.733Z,99.90
2022-10-17T09:18:51.873Z,99.90
2022-10-17T09:21:26.637Z,99.90
2022-10-17T09:24:08.806Z,99.90
2022-10-17T09:26:38.268Z,99.90
2022-10-17T09:29:20.720Z,99.90
2022-10-17T09:31:54.647Z,99.90
2022-10-17T09:34:26.692Z,99.90
2022-10-17T09:36:56.148Z,99.90
2022-10-17T09:39:26.102Z,99.90
2022-10-17T09:41:56.569Z,99.90
2022-10-17T09:44:30.444Z,99.90
2022-10-17T09:47:07.291Z,99.90
2022-10-17T09:49:37.336Z,99.90
2022-10-17T09:52:10.054Z,99.90
2022-10-17T09:54:43.719Z,99.90
2022-10-17T09:57:12.878Z,99.90
2022-10-17T09:59:44.101Z,99.90
2022-10-17T10:02:22.130Z,99.90
2022-10-17T10:05:05.932Z,99.90
2022-10-17T10:07:37.276Z,99.90
2022-10-17T10:10:08.187Z,99.90
2022-10-17T10:12:37.954Z,99.90
2022-10-17T10:15:32.169Z,99.90
2022-10-17T10:18:00.147Z,99.90
2022-10-17T10:20:33.162Z,99.90
2022-10-17T10:23:17.206Z,99.90
2022-10-17T10:25:55.792Z,99.90
2022-10-17T10:28:28.162Z,99.90
2022-10-17T10:31:00.376Z,99.90
2022-10-17T10:33:31.102Z,99.90
2022-10-17T10:36:03.464Z,99.90
2022-10-17T10:38:33.720Z,99.90
2022-10-17T10:41:05.536Z,99.90
2022-10-17T10:43:37.825Z,99.90
2022-10-17T10:46:18.619Z,99.90
2022-10-17T10:48:56.410Z,99.90
2022-10-17T10:51:29.647Z,99.90
2022-10-17T10:54:04.000Z,98.70
2022-10-17T10:56:35.913Z,98.20
2022-10-17T10:59:07.568Z,97.80
2022-10-17T11:01:46.299Z,97.40
2022-10-17T11:04:24.288Z,96.80
2022-10-17T11:06:56.236Z,96.40
2022-10-17T11:09:33.947Z,94.30
2022-10-17T11:12:07.077Z,94.90
2022-10-17T11:14:43.289Z,93.10
2022-10-17T11:17:20.709Z,91.00
2022-10-17T11:19:53.324Z,90.20
2022-10-17T11:22:29.358Z,88.50
2022-10-17T11:25:01.068Z,87.20
2022-10-17T11:27:31.073Z,85.60
2022-10-17T11:29:59.959Z,86.30
2022-10-17T11:32:35.842Z,84.40
2022-10-17T11:35:07.941Z,83.80
2022-10-17T11:37:41.357Z,83.60
2022-10-17T11:40:20.393Z,82.10
2022-10-17T11:42:56.331Z,81.00
2022-10-17T11:45:28.166Z,80.40
2022-10-17T11:48:03.971Z,78.80
2022-10-17T11:53:25.916Z,76.80
2022-10-17T11:55:55.434Z,76.70
2022-10-17T11:58:31.003Z,76.00
2022-10-17T12:01:08.500Z,76.10
2022-10-17T12:03:49.628Z,75.20
2022-10-17T12:06:29.367Z,75.20
2022-10-17T12:09:02.389Z,75.00
2022-10-17T12:11:41.159Z,76.70
2022-10-17T12:14:36.988Z,77.00
2022-10-17T12:17:06.970Z,75.50
2022-10-17T12:19:38.154Z,76.10
2022-10-17T12:22:25.993Z,75.60
2022-10-17T12:24:59.937Z,73.50
2022-10-17T12:27:38.350Z,74.40
2022-10-17T12:30:16.889Z,75.70
2022-10-17T12:33:08.067Z,75.20
2022-10-17T12:35:39.317Z,75.80
2022-10-17T12:38:28.691Z,77.60
2022-10-17T12:40:59.434Z,77.50
2022-10-17T12:43:52.319Z,77.50
2022-10-17T12:46:43.256Z,76.30
2022-10-17T12:49:37.014Z,78.70
2022-10-17T12:52:21.871Z,81.80
2022-10-17T12:55:14.980Z,82.80
2022-10-17T12:57:56.571Z,83.00
2022-10-17T13:00:32.611Z,82.90
2022-10-17T13:03:06.815Z,83.50
2022-10-17T13:05:37.512Z,85.40
2022-10-17T13:08:09.802Z,94.80
2022-10-17T13:10:43.069Z,96.40
2022-10-17T13:13:17.320Z,97.90
2022-10-17T13:15:48.280Z,98.20
2022-10-17T13:18:21.560Z,98.20
2022-10-17T13:20:57.771Z,98.80
2022-10-17T13:23:30.575Z,99.10
2022-10-17T13:26:07.610Z,98.70
2022-10-17T13:28:39.229Z,98.60
2022-10-17T13:31:08.315Z,98.60
2022-10-17T13:33:39.121Z,98.40
2022-10-17T13:36:14.083Z,98.80
2022-10-17T13:38:44.098Z,98.60
2022-10-17T13:44:05.440Z,98.80
2022-10-17T13:46:38.447Z,98.60
2022-10-17T13:49:13.492Z,98.30
2022-10-17T13:51:45.442Z,98.20
2022-10-17T13:54:37.438Z,98.10
2022-10-17T13:57:06.578Z,97.60
2022-10-17T13:59:39.561Z,96.90
2022-10-17T14:02:14.634Z,96.60
2022-10-17T14:05:15.004Z,95.90
2022-10-17T14:08:05.848Z,95.30
2022-10-17T14:10:31.744Z,95.00
2022-10-17T14:13:00.989Z,94.90
2022-10-17T14:15:30.795Z,94.30
2022-10-17T14:18:04.229Z,94.10
2022-10-17T14:21:08.189Z,94.20
2022-10-17T14:23:37.835Z,94.10
2022-10-17T14:26:14.342Z,93.40
2022-10-17T14:28:43.918Z,92.90
2022-10-17T14:31:32.020Z,92.80
2022-10-17T14:34:01.693Z,91.90
2022-10-17T14:36:35.728Z,91.10
2022-10-17T14:39:04.466Z,89.70
2022-10-17T14:41:44.213Z,88.40
2022-10-17T14:44:25.763Z,87.10
2022-10-17T14:47:03.453Z,86.20
2022-10-17T14:49:41.934Z,85.20
2022-10-17T14:52:24.631Z,83.50
2022-10-17T14:54:52.678Z,83.00
2022-10-17T14:57:26.785Z,81.70
2022-10-17T14:59:56.172Z,81.30
2022-10-17T15:02:25.388Z,80.60
2022-10-17T15:04:53.605Z,80.80
2022-10-17T15:07:22.154Z,82.40
2022-10-17T15:09:51.818Z,83.50
2022-10-17T15:12:23.005Z,85.20
2022-10-17T15:14:51.715Z,86.30
2022-10-17T15:17:22.164Z,88.40
2022-10-17T15:19:50.505Z,90.50
2022-10-17T15:22:18.899Z,90.90
2022-10-17T15:24:47.388Z,91.20
2022-10-17T15:27:17.050Z,91.70
2022-10-17T15:29:46.803Z,92.20
2022-10-17T15:32:14.968Z,93.20
2022-10-17T15:34:43.535Z,94.00
2022-10-17T15:37:18.769Z,94.50
2022-10-17T15:39:52.879Z,96.40
2022-10-17T15:42:21.570Z,98.30
2022-10-17T15:44:50.815Z,99.50
2022-10-17T15:47:25.989Z,99.90
2022-10-17T15:49:54.680Z,99.90
2022-10-17T15:52:23.174Z,99.90
2022-10-17T15:54:52.322Z,99.90
2022-10-17T15:57:23.021Z,99.90
2022-10-17T15:59:53.517Z,99.90
2022-10-17T16:02:23.925Z,99.90
2022-10-17T16:04:53.041Z,99.90
2022-10-17T16:07:21.851Z,99.90
2022-10-17T16:09:49.813Z,99.90
2022-10-17T16:12:19.976Z,99.90
2022-10-17T16:14:47.876Z,99.90
2022-10-17T16:17:17.964Z,99.90
2022-10-17T16:19:46.178Z,99.90
2022-10-17T16:22:22.372Z,99.90
2022-10-17T16:24:50.799Z,99.90
2022-10-17T16:27:18.954Z,99.90
2022-10-17T16:29:46.811Z,99.90
2022-10-17T16:32:14.792Z,99.90
2022-10-17T16:34:43.953Z,99.90
2022-10-17T16:37:11.850Z,99.90
2022-10-17T16:39:39.740Z,99.90
2022-10-17T16:42:07.617Z,99.90
2022-10-17T16:44:35.396Z,99.90
2022-10-17T16:47:03.330Z,99.90
2022-10-17T16:49:31.202Z,99.90
2022-10-17T16:52:00.435Z,99.90
2022-10-17T16:54:28.314Z,99.90
2022-10-17T16:56:57.593Z,99.90
2022-10-17T16:59:25.986Z,99.90
2022-10-17T17:01:53.919Z,99.90
2022-10-17T17:04:22.220Z,99.90
2022-10-17T17:06:50.183Z,99.90
2022-10-17T17:09:19.411Z,99.90
2022-10-17T17:11:47.484Z,99.90
2022-10-17T17:14:15.786Z,99.90
2022-10-17T17:16:44.149Z,99.90
2022-10-17T17:19:14.349Z,99.90
2022-10-17T17:21:47.454Z,99.90
2022-10-17T17:24:15.459Z,99.90
2022-10-17T17:26:46.047Z,99.90
2022-10-17T17:29:14.095Z,99.90
2022-10-17T17:31:41.997Z,99.90
2022-10-17T17:34:11.991Z,99.90
2022-10-17T17:36:42.295Z,99.90
2022-10-17T17:39:12.736Z,99.90
2022-10-17T17:41:41.166Z,99.90
2022-10-17T17:44:15.678Z,99.90
2022-10-17T17:46:45.060Z,99.90
2022-10-17T17:49:18.711Z,99.90
2022-10-17T17:51:48.083Z,99.90
2022-10-17T17:54:16.496Z,99.90
2022-10-17T17:56:44.479Z,99.90
2022-10-17T17:59:14.407Z,99.90
2022-10-17T18:01:42.749Z,99.90
2022-10-17T18:04:12.160Z,99.90
2022-10-17T18:06:40.556Z,99.90
2022-10-17T18:09:09.067Z,99.90
2022-10-17T18:11:37.783Z,99.90
2022-10-17T18:14:07.378Z,99.90
2022-10-17T18:16:38.097Z,99.90
2022-10-17T18:19:08.814Z,99.90
2022-10-17T18:21:37.327Z,99.90
2022-10-17T18:24:06.038Z,99.90
2022-10-17T18:26:34.425Z,99.90
2022-10-17T18:29:02.619Z,99.90
2022-10-17T18:31:35.432Z,99.90
2022-10-17T18:34:06.832Z,99.90
2022-10-17T18:36:37.277Z,99.90
2022-10-17T18:39:06.684Z,99.90
2022-10-17T18:41:35.462Z,99.90
2022-10-17T18:44:05.315Z,99.90
2022-10-17T18:46:40.097Z,99.90
2022-10-17T18:49:09.923Z,99.90
2022-10-17T18:51:37.996Z,99.90
2022-10-17T18:54:06.025Z,99.90
2022-10-17T18:56:33.837Z,99.90
2022-10-17T18:59:02.537Z,99.90
2022-10-17T19:01:30.747Z,99.90
2022-10-17T19:04:00.106Z,99.90
2022-10-17T19:06:31.942Z,99.90
2022-10-17T19:09:00.171Z,99.90
2022-10-17T19:11:29.847Z,99.90
2022-10-17T19:13:58.995Z,99.90
2022-10-17T19:16:29.375Z,99.90
2022-10-17T19:18:59.076Z,99.90
2022-10-17T19:21:27.247Z,99.90
2022-10-17T19:23:57.679Z,99.90
2022-10-17T19:26:26.679Z,99.90
2022-10-17T19:28:55.176Z,99.90
2022-10-17T19:31:26.976Z,99.90
2022-10-17T19:33:56.143Z,99.90
2022-10-17T19:36:29.073Z,99.90
2022-10-17T19:39:02.366Z,99.90
2022-10-17T19:41:30.280Z,99.90
2022-10-17T19:43:58.259Z,99.90
2022-10-17T19:46:27.981Z,99.90
2022-10-17T19:48:56.380Z,99.90
2022-10-17T19:51:26.194Z,99.90
2022-10-17T19:53:55.450Z,99.90
2022-10-17T19:56:26.125Z,99.90
2022-10-17T19:58:55.628Z,99.90
2022-10-17T20:01:25.250Z,99.90
2022-10-17T20:03:53.629Z,99.90
2022-10-17T20:06:22.551Z,99.90
2022-10-17T20:08:50.906Z,99.90
2022-10-17T20:11:20.628Z,99.90
2022-10-17T20:13:50.477Z,99.90
2022-10-17T20:16:21.422Z,99.90
2022-10-17T20:18:50.175Z,99.90
2022-10-17T20:21:20.127Z,99.90
2022-10-17T20:23:48.351Z,99.90
2022-10-17T20:26:26.389Z,99.90
2022-10-17T20:29:10.679Z,99.90
2022-10-17T20:31:40.118Z,99.90
2022-10-17T20:34:08.037Z,99.90
2022-10-17T20:36:37.428Z,99.90
2022-10-17T20:39:07.129Z,99.90
2022-10-17T20:41:35.376Z,99.90
2022-10-17T20:44:03.407Z,99.90
2022-10-17T20:46:37.241Z,99.90
2022-10-17T20:49:06.810Z,99.90
2022-10-17T20:51:35.528Z,99.90
2022-10-17T20:54:03.775Z,99.90
2022-10-17T20:56:33.321Z,99.90
2022-10-17T20:59:03.430Z,99.90
2022-10-17T21:01:34.560Z,99.90
2022-10-17T21:04:26.937Z,99.90
2022-10-17T21:06:52.037Z,99.90
2022-10-17T21:09:20.786Z,99.90
2022-10-17T21:11:51.161Z,99.90
2022-10-17T21:14:19.468Z,99.90
2022-10-17T21:16:49.435Z,99.90
2022-10-17T21:19:17.648Z,99.90
2022-10-17T21:21:47.268Z,99.90
2022-10-17T21:24:18.027Z,99.90
2022-10-17T21:26:47.428Z,99.90
2022-10-17T21:29:15.437Z,99.90
2022-10-17T21:31:45.063Z,99.90
2022-10-17T21:34:17.463Z,99.90
2022-10-17T21:36:46.121Z,99.90
2022-10-17T21:39:15.090Z,99.90
2022-10-17T21:41:43.779Z,99.90
2022-10-17T21:44:15.553Z,99.90
2022-10-17T21:46:43.909Z,99.90
2022-10-17T21:49:15.158Z,99.90
2022-10-17T21:51:44.027Z,99.90
2022-10-17T21:54:12.692Z,99.90
2022-10-17T21:56:40.775Z,99.90
2022-10-17T21:59:09.445Z,99.90
2022-10-17T22:01:39.311Z,99.90
2022-10-17T22:04:09.037Z,99.90
2022-10-17T22:06:41.167Z,99.90
2022-10-17T22:09:13.193Z,99.90
2022-10-17T22:11:41.714Z,99.90
2022-10-17T22:14:13.158Z,99.90
2022-10-17T22:16:42.010Z,99.90
2022-10-17T22:19:09.914Z,99.90
2022-10-17T22:21:39.339Z,99.90
2022-10-17T22:24:09.051Z,99.90
2022-10-17T22:26:38.256Z,99.90
2022-10-17T22:29:07.632Z,99.90
2022-10-17T22:31:35.855Z,99.90
2022-10-17T22:34:05.350Z,99.90
2022-10-17T22:36:33.801Z,99.90
2022-10-17T22:39:03.611Z,99.90
2022-10-17T22:41:31.510Z,99.90
2022-10-17T22:43:59.415Z,99.90
2022-10-17T22:46:27.261Z,99.90
2022-10-17T22:48:55.302Z,99.90
2022-10-17T22:53:52.144Z,99.90
2022-10-17T22:56:22.885Z,99.90
2022-10-17T22:58:51.354Z,99.90
2022-10-17T23:01:21.007Z,99.90
2022-10-17T23:03:49.122Z,99.90
2022-10-17T23:06:17.170Z,99.90
2022-10-17T23:08:45.504Z,99.90
2022-10-17T23:11:14.049Z,99.90
2022-10-17T23:13:43.546Z,99.90
2022-10-17T23:16:11.454Z,99.90
2022-10-17T23:18:40.141Z,99.90
2022-10-17T23:21:08.842Z,99.90
2022-10-17T23:23:37.208Z,99.90
2022-10-17T23:26:06.409Z,99.90
2022-10-17T23:28:35.528Z,99.90
2022-10-17T23:31:16.512Z,99.90
2022-10-17T23:33:45.666Z,99.90
2022-10-17T23:36:14.702Z,99.90
2022-10-17T23:38:43.618Z,99.90
2022-10-17T23:41:11.826Z,99.90
2022-10-17T23:43:39.758Z,99.90
2022-10-17T23:46:08.107Z,99.90
2022-10-17T23:48:38.584Z,99.90
2022-10-17T23:51:07.100Z,99.90
2022-10-17T23:53:35.196Z,99.90
2022-10-17T23:56:03.107Z,99.90
2022-10-17T23:58:31.458Z,99.90
